Time;durP1;ratioP1;P1;durP2;ratioP2;P2;SDS_P1;SDS_P2;PMS_P1;PMS_P2;Temp;Humidity;BMP_temperature;BMP_pressure;BME280_temperature;BME280_humidity;BME280_pressure;Samples;Min_cycle;Max_cycle;Signal;HPM_P1;HPM_P2
2021/08/13 00:00:18;;;;;;;12.77;2.67;;;;;;;12.05;83.76;100840.41;4966714;28;20030;-84
2021/08/13 00:02:43;;;;;;;19.48;3.58;;;;;;;12.05;84.18;100837.72;4986254;28;20030;-85
2021/08/13 00:05:10;;;;;;;15.40;2.75;;;;;;;12.04;84.33;100841.44;4982522;28;20026;-85
2021/08/13 00:07:36;;;;;;;18.23;2.85;;;;;;;11.99;84.23;100830.38;4987627;28;20032;-85
2021/08/13 00:10:03;;;;;;;13.85;2.63;;;;;;;12.04;84.33;100837.88;5004050;28;20022;-85
2021/08/13 00:12:29;;;;;;;16.10;2.80;;;;;;;12.04;84.40;100830.66;4994119;28;20030;-85
2021/08/13 00:14:57;;;;;;;14.25;3.13;;;;;;;12.02;85.08;100829.19;4992189;28;20034;-85
2021/08/13 00:17:24;;;;;;;12.60;2.65;;;;;;;11.86;84.79;100806.75;4973927;28;20057;-85
2021/08/13 00:19:49;;;;;;;17.27;2.70;;;;;;;11.98;85.49;100834.06;4987679;28;20034;-84
2021/08/13 00:22:15;;;;;;;13.02;2.15;;;;;;;11.99;85.33;100835.75;4987564;28;20084;-85
2021/08/13 00:24:41;;;;;;;18.80;3.60;;;;;;;12.00;85.46;100832.03;5001844;28;20030;-86
2021/08/13 00:27:07;;;;;;;12.73;3.20;;;;;;;11.95;85.39;100810.19;5004558;28;21031;-85
2021/08/13 00:29:32;;;;;;;13.30;2.80;;;;;;;12.07;85.57;100824.06;4994584;28;20033;-85
2021/08/13 00:32:12;;;;;;;11.18;2.20;;;;;;;12.20;85.25;100831.50;4988354;28;20032;-85
2021/08/13 00:34:38;;;;;;;15.57;2.97;;;;;;;12.18;84.92;100817.38;4973169;28;20025;-85
2021/08/13 00:37:04;;;;;;;16.75;2.75;;;;;;;12.30;84.77;100837.47;5003933;28;20038;-85
2021/08/13 00:39:30;;;;;;;12.57;2.63;;;;;;;12.26;84.97;100828.09;4969166;28;20492;-86
2021/08/13 00:41:55;;;;;;;20.38;3.97;;;;;;;12.29;84.98;100830.41;4987343;28;20631;-85
2021/08/13 00:44:21;;;;;;;13.65;2.47;;;;;;;12.28;85.04;100821.47;4995375;28;20026;-85
2021/08/13 00:46:47;;;;;;;16.45;2.88;;;;;;;12.36;84.89;100838.56;4980824;28;20029;-85
2021/08/13 00:49:12;;;;;;;13.75;3.03;;;;;;;12.35;84.95;100843.13;5000060;28;20030;-85
2021/08/13 00:51:38;;;;;;;15.52;2.55;;;;;;;12.36;85.28;100842.13;4990219;28;20026;-85
2021/08/13 00:54:04;;;;;;;18.20;2.97;;;;;;;12.38;85.18;100847.31;4988085;28;20041;-85
2021/08/13 00:56:30;;;;;;;16.30;2.53;;;;;;;12.16;84.97;100806.78;5006859;28;20030;-86
2021/08/13 00:58:55;;;;;;;18.92;3.25;;;;;;;12.34;85.56;100833.38;4991388;28;20173;-84
2021/08/13 01:01:21;;;;;;;11.70;2.75;;;;;;;12.36;85.54;100834.03;4973909;28;20089;-85
2021/08/13 01:03:47;;;;;;;18.95;3.42;;;;;;;12.27;85.85;100817.09;4987544;28;20018;-85
2021/08/13 01:06:14;;;;;;;16.83;2.92;;;;;;;12.45;85.68;100837.47;4990509;28;20029;-86
2021/08/13 01:08:40;;;;;;;14.40;2.83;;;;;;;12.49;85.08;100827.97;4987498;28;21677;-85
2021/08/13 01:11:18;;;;;;;22.10;3.33;;;;;;;12.62;84.99;100844.34;4993002;28;20029;-85
2021/08/13 01:13:46;;;;;;;12.60;2.25;;;;;;;12.66;84.63;100832.16;5003134;28;20031;-86
2021/08/13 01:16:13;;;;;;;24.65;3.08;;;;;;;12.66;84.55;100826.75;4985867;28;20030;-87
2021/08/13 01:18:45;;;;;;;15.38;2.42;;;;;;;12.69;84.21;100829.06;4989362;28;20018;-85
2021/08/13 01:21:52;;;;;;;19.85;2.72;;;;;;;12.71;84.24;100831.59;4992253;28;20084;-85
2021/08/13 01:24:23;;;;;;;13.43;2.60;;;;;;;12.71;84.34;100832.44;4943123;28;20049;-84
2021/08/13 01:27:02;;;;;;;11.88;2.35;;;;;;;12.66;84.28;100834.84;4991790;28;20025;-86
2021/08/13 01:29:35;;;;;;;10.82;2.60;;;;;;;12.68;84.48;100829.28;4994599;28;20464;-86
2021/08/13 01:32:09;;;;;;;10.02;2.33;;;;;;;12.65;84.38;100830.50;5031199;28;20040;-88
2021/08/13 01:34:40;;;;;;;12.50;2.88;;;;;;;12.63;84.93;100827.13;5018192;28;20029;-85
2021/08/13 01:37:06;;;;;;;11.32;2.45;;;;;;;12.62;85.13;100809.28;5008536;28;20026;-89
2021/08/13 01:39:32;;;;;;;10.88;3.13;;;;;;;12.53;85.03;100800.44;4983374;28;20102;-87
2021/08/13 01:41:58;;;;;;;17.98;3.38;;;;;;;12.60;85.31;100805.94;4998576;28;20589;-87
2021/08/13 01:44:25;;;;;;;22.20;3.95;;;;;;;12.62;85.24;100811.13;4983746;28;20492;-86
2021/08/13 01:46:53;;;;;;;20.45;3.30;;;;;;;12.59;84.63;100820.44;5012901;28;20454;-86
2021/08/13 01:49:19;;;;;;;18.48;2.70;;;;;;;12.66;84.34;100804.34;5000429;28;20030;-89
2021/08/13 01:51:46;;;;;;;13.63;2.50;;;;;;;12.59;84.34;100798.03;5004236;28;20037;-86
2021/08/13 01:54:13;;;;;;;25.25;4.28;;;;;;;12.41;84.23;100783.09;5005011;28;20018;-86
2021/08/13 01:56:39;;;;;;;18.15;2.35;;;;;;;12.38;84.81;100796.09;4998282;28;20089;-86
2021/08/13 01:59:05;;;;;;;15.25;2.72;;;;;;;12.44;84.83;100814.25;4997699;28;20579;-86
2021/08/13 02:01:30;;;;;;;15.45;3.30;;;;;;;12.33;85.29;100796.63;5000468;28;20033;-86
2021/08/13 02:03:56;;;;;;;12.40;2.67;;;;;;;12.38;84.86;100810.41;4982044;28;20033;-89
2021/08/13 02:06:22;;;;;;;14.52;2.50;;;;;;;12.31;85.12;100799.53;5020090;28;20089;-86
2021/08/13 02:08:48;;;;;;;16.58;2.47;;;;;;;12.40;85.41;100818.31;4980355;28;20465;-87
2021/08/13 02:11:14;;;;;;;17.25;3.00;;;;;;;12.35;85.45;100818.03;4973942;28;20030;-86
2021/08/13 02:13:40;;;;;;;11.00;2.60;;;;;;;12.28;85.32;100801.78;5003156;28;20041;-86
2021/08/13 02:16:09;;;;;;;14.95;2.33;;;;;;;12.30;85.28;100811.34;4982850;28;20088;-86
2021/08/13 02:18:37;;;;;;;6.80;2.13;;;;;;;12.32;85.09;100813.84;4996031;28;20049;-86
2021/08/13 02:21:05;;;;;;;12.10;2.13;;;;;;;12.30;85.12;100803.28;4992700;28;20030;-86
2021/08/13 02:23:30;;;;;;;10.20;2.50;;;;;;;12.32;85.46;100819.25;4990414;28;20036;-85
2021/08/13 02:25:56;;;;;;;11.98;2.00;;;;;;;12.28;85.06;100821.47;4966465;28;20026;-88
2021/08/13 02:28:22;;;;;;;18.27;3.40;;;;;;;12.27;85.48;100827.03;4987011;28;20026;-85
2021/08/13 02:30:48;;;;;;;14.02;2.63;;;;;;;12.23;85.50;100818.50;4981593;28;20093;-86
2021/08/13 02:33:13;;;;;;;13.50;2.88;;;;;;;12.25;85.86;100823.69;4997391;28;20621;-86
2021/08/13 02:35:39;;;;;;;13.50;2.58;;;;;;;12.18;86.08;100806.59;5004758;28;20048;-86
2021/08/13 02:38:20;;;;;;;11.02;2.00;;;;;;;12.26;86.00;100820.81;4988296;28;20029;-86
2021/08/13 02:41:05;;;;;;;14.25;2.40;;;;;;;12.17;86.26;100810.31;4978882;28;20033;-87
2021/08/13 02:43:44;;;;;;;18.40;3.65;;;;;;;12.25;86.42;100824.56;5002555;28;20960;-85
2021/08/13 02:46:12;;;;;;;12.93;2.30;;;;;;;12.26;86.43;100831.59;5007777;28;20038;-86
2021/08/13 02:48:39;;;;;;;14.68;2.47;;;;;;;12.26;86.27;100828.09;4999536;28;20112;-86
2021/08/13 02:51:06;;;;;;;11.30;2.47;;;;;;;12.31;86.34;100831.88;4987158;28;20146;-86
2021/08/13 02:53:38;;;;;;;12.38;3.42;;;;;;;12.31;86.29;100826.50;4992691;28;20159;-88
2021/08/13 02:56:10;;;;;;;13.13;2.93;;;;;;;12.32;86.43;100836.25;4990893;28;20029;-86
2021/08/13 02:58:39;;;;;;;16.85;3.45;;;;;;;12.37;86.35;100834.88;4999653;28;20022;-87
2021/08/13 03:01:05;;;;;;;15.02;2.60;;;;;;;12.31;86.58;100828.38;5003673;28;20026;-87
2021/08/13 03:03:31;;;;;;;11.75;2.65;;;;;;;12.28;86.52;100820.66;4996797;28;20072;-87
2021/08/13 03:05:59;;;;;;;12.45;2.78;;;;;;;12.34;86.90;100835.25;4986818;28;20582;-85
2021/08/13 03:08:24;;;;;;;15.30;3.60;;;;;;;12.31;87.11;100831.06;4981639;28;20400;-87
2021/08/13 03:10:51;;;;;;;14.30;2.20;;;;;;;12.29;86.86;100819.63;4998069;28;20029;-86
2021/08/13 03:13:17;;;;;;;22.67;3.88;;;;;;;12.04;86.79;100774.06;4991047;28;20030;-86
2021/08/13 03:15:44;;;;;;;14.90;2.33;;;;;;;12.29;87.00;100817.75;4986680;28;20053;-84
2021/08/13 03:18:09;;;;;;;16.08;2.50;;;;;;;12.24;87.03;100808.56;4985684;28;20029;-85
2021/08/13 03:20:37;;;;;;;15.02;2.78;;;;;;;12.41;87.12;100822.66;4978868;28;20041;-86
2021/08/13 03:23:02;;;;;;;14.18;2.53;;;;;;;12.46;86.49;100825.66;4976102;28;20017;-87
2021/08/13 03:25:28;;;;;;;18.80;3.00;;;;;;;12.49;86.20;100826.13;4991255;28;20032;-85
2021/08/13 03:27:55;;;;;;;16.35;3.08;;;;;;;12.52;86.49;100814.13;5005100;28;20423;-87
2021/08/13 03:30:20;;;;;;;22.08;3.63;;;;;;;12.45;85.91;100802.41;5007698;28;20380;-86
2021/08/13 03:32:47;;;;;;;21.60;3.20;;;;;;;12.60;86.12;100818.59;4987519;28;20022;-85
2021/08/13 03:35:13;;;;;;;17.58;2.80;;;;;;;12.65;85.70;100808.06;4966780;28;21553;-85
2021/08/13 03:37:39;;;;;;;19.63;3.20;;;;;;;12.66;85.63;100810.56;5005096;28;20908;-85
2021/08/13 03:40:06;;;;;;;12.65;2.58;;;;;;;12.75;85.90;100817.56;4997797;28;20041;-86
2021/08/13 03:42:32;;;;;;;11.13;2.58;;;;;;;12.75;85.91;100814.84;5004324;28;20031;-85
2021/08/13 03:44:57;;;;;;;15.50;3.53;;;;;;;12.76;86.38;100815.69;4990147;28;20033;-86
2021/08/13 03:47:23;;;;;;;12.70;3.25;;;;;;;12.73;86.40;100802.56;4990260;28;20062;-87
2021/08/13 03:49:49;;;;;;;18.70;3.25;;;;;;;12.80;86.55;100818.84;5001897;28;20080;-86
2021/08/13 03:52:14;;;;;;;19.00;4.28;;;;;;;12.65;87.06;100797.25;5000416;28;20026;-85
2021/08/13 03:54:40;;;;;;;14.20;3.65;;;;;;;12.67;87.87;100816.81;4998151;28;20065;-86
2021/08/13 03:57:06;;;;;;;16.38;2.40;;;;;;;12.63;88.68;100821.75;5005970;28;20057;-86
2021/08/13 03:59:31;;;;;;;19.52;3.83;;;;;;;12.49;88.69;100807.25;4992250;28;20536;-87
2021/08/13 04:01:57;;;;;;;16.88;3.08;;;;;;;12.45;88.83;100814.03;4992105;28;20084;-86
2021/08/13 04:04:23;;;;;;;17.75;3.58;;;;;;;12.43;89.47;100809.84;4988132;28;20390;-86
2021/08/13 04:06:48;;;;;;;26.13;3.28;;;;;;;12.53;89.26;100826.59;4981963;28;20033;-86
2021/08/13 04:09:14;;;;;;;14.02;3.08;;;;;;;12.42;89.67;100819.81;4972271;28;20021;-87
2021/08/13 04:11:39;;;;;;;14.80;2.50;;;;;;;12.45;89.63;100824.81;5003853;28;20505;-87
2021/08/13 04:14:05;;;;;;;20.13;3.42;;;;;;;12.19;90.16;100792.94;5006225;28;20026;-86
2021/08/13 04:16:31;;;;;;;14.88;2.47;;;;;;;12.28;90.16;100818.78;4988550;28;20029;-86
2021/08/13 04:18:57;;;;;;;13.98;3.25;;;;;;;12.32;90.47;100816.53;4995974;28;20637;-86
2021/08/13 04:21:22;;;;;;;14.60;3.40;;;;;;;12.19;90.50;100800.19;4987286;28;20484;-86
2021/08/13 04:23:48;;;;;;;18.27;3.17;;;;;;;12.28;90.48;100826.88;4984951;28;20022;-86
2021/08/13 04:26:13;;;;;;;22.35;3.78;;;;;;;12.24;90.53;100830.94;4972921;28;20029;-85
2021/08/13 04:28:39;;;;;;;17.83;3.25;;;;;;;12.14;90.18;100811.50;5005070;28;20076;-85
2021/08/13 04:31:05;;;;;;;13.80;2.50;;;;;;;12.21;90.45;100822.41;4976572;28;20034;-87
2021/08/13 04:33:32;;;;;;;15.00;2.65;;;;;;;12.21;90.25;100836.72;5001401;28;20096;-87
2021/08/13 04:35:58;;;;;;;14.45;2.38;;;;;;;12.16;90.54;100828.34;4991789;28;20037;-85
2021/08/13 04:38:25;;;;;;;12.05;2.33;;;;;;;12.16;90.48;100831.03;4988766;28;20113;-87
2021/08/13 04:40:51;;;;;;;19.30;2.80;;;;;;;12.15;90.57;100836.63;4984214;28;20030;-86
2021/08/13 04:43:16;;;;;;;15.40;3.30;;;;;;;11.94;90.19;100813.09;4998221;28;20087;-84
2021/08/13 04:45:42;;;;;;;14.02;2.90;;;;;;;11.90;90.16;100814.47;4989270;28;20092;-85
2021/08/13 04:48:08;;;;;;;14.70;2.40;;;;;;;11.85;90.04;100815.84;4992094;28;20037;-86
2021/08/13 04:50:33;;;;;;;16.65;3.03;;;;;;;11.77;90.28;100820.44;5002217;28;20105;-86
2021/08/13 04:52:59;;;;;;;9.98;2.22;;;;;;;11.88;90.31;100839.75;4972127;28;20033;-87
2021/08/13 04:55:26;;;;;;;15.40;2.95;;;;;;;11.89;90.21;100843.28;5003788;28;20038;-85
2021/08/13 04:57:53;;;;;;;11.32;2.83;;;;;;;11.72;90.40;100829.06;5004641;28;20342;-86
2021/08/13 05:00:20;;;;;;;7.22;2.65;;;;;;;11.76;90.57;100846.53;5007006;28;20026;-86
2021/08/13 05:02:46;;;;;;;8.90;1.98;;;;;;;11.77;90.76;100853.59;5005177;28;20061;-85
2021/08/13 05:05:12;;;;;;;14.60;2.85;;;;;;;11.72;90.59;100852.47;4973534;28;20026;-86
2021/08/13 05:07:38;;;;;;;8.95;2.33;;;;;;;11.64;90.68;100856.91;5001769;28;20036;-86
2021/08/13 05:10:12;;;;;;;16.98;2.22;;;;;;;11.68;90.45;100860.06;4987389;28;20124;-86
2021/08/13 05:12:39;;;;;;;8.77;2.63;;;;;;;11.68;90.63;100854.69;4997633;28;20022;-85
2021/08/13 05:15:06;;;;;;;16.13;3.33;;;;;;;11.60;90.38;100834.03;4972553;28;20136;-85
2021/08/13 05:17:32;;;;;;;16.55;2.65;;;;;;;11.66;90.37;100846.78;4983218;28;20441;-86
2021/08/13 05:19:58;;;;;;;7.55;2.50;;;;;;;11.66;90.19;100862.09;4995653;28;20073;-85
2021/08/13 05:22:24;;;;;;;21.52;2.95;;;;;;;11.60;90.23;100847.50;5008338;28;20030;-85
2021/08/13 05:24:49;;;;;;;15.38;2.55;;;;;;;11.63;90.12;100851.69;4988142;28;20030;-86
2021/08/13 05:27:15;;;;;;;15.55;2.80;;;;;;;11.64;89.62;100850.66;4971458;28;20036;-86
2021/08/13 05:29:41;;;;;;;13.55;2.53;;;;;;;11.65;89.80;100849.69;4973814;28;20037;-86
2021/08/13 05:32:07;;;;;;;12.20;2.55;;;;;;;11.67;89.84;100853.03;4980645;28;20026;-86
2021/08/13 05:34:32;;;;;;;18.50;2.80;;;;;;;11.68;nan;100848.47;5019488;28;20105;-85
2021/08/13 05:36:58;;;;;;;9.80;2.03;;;;;;;11.68;89.86;100849.31;4996421;28;20366;-85
2021/08/13 05:39:24;;;;;;;18.05;2.60;;;;;;;11.77;89.44;100864.38;5000737;28;20052;-85
2021/08/13 05:41:49;;;;;;;17.42;2.88;;;;;;;11.79;89.83;100866.91;4989104;28;20026;-84
2021/08/13 05:44:15;;;;;;;13.70;2.20;;;;;;;11.84;89.49;100876.09;4988343;28;20030;-84
2021/08/13 05:46:41;;;;;;;15.57;2.80;;;;;;;11.83;89.61;100876.31;4989621;28;20034;-85
2021/08/13 05:49:06;;;;;;;16.13;2.83;;;;;;;11.87;89.52;100880.31;4971600;28;20038;-84
2021/08/13 05:51:32;;;;;;;13.35;3.35;;;;;;;11.86;89.23;100884.88;5007795;28;20476;-87
2021/08/13 05:53:58;;;;;;;12.70;3.20;;;;;;;11.92;89.26;100885.19;4998813;28;20030;-86
2021/08/13 05:56:24;;;;;;;19.77;3.45;;;;;;;11.85;88.91;100863.47;4994184;28;20037;-85
2021/08/13 05:58:49;;;;;;;8.55;2.88;;;;;;;12.03;89.13;100892.81;4994305;28;20025;-86
2021/08/13 06:01:15;;;;;;;18.13;3.10;;;;;;;11.88;88.95;100860.44;4976243;28;20455;-85
2021/08/13 06:03:40;;;;;;;15.05;3.17;;;;;;;12.06;89.06;100889.75;5001778;28;20026;-86
2021/08/13 06:06:06;;;;;;;14.23;2.92;;;;;;;12.06;89.25;100895.16;5002381;28;20030;-87
2021/08/13 06:08:32;;;;;;;18.98;3.35;;;;;;;12.05;89.30;100893.47;4989285;28;20036;-86
2021/08/13 06:10:57;;;;;;;13.90;2.88;;;;;;;12.07;89.05;100903.06;4991813;28;20026;-87
2021/08/13 06:13:23;;;;;;;8.63;2.40;;;;;;;12.06;89.51;100903.22;5009992;28;20030;-85
2021/08/13 06:15:49;;;;;;;16.63;3.75;;;;;;;12.04;90.05;100900.75;5004539;28;20105;-86
2021/08/13 06:18:14;;;;;;;14.32;2.95;;;;;;;12.06;90.42;100928.31;5004930;28;20038;-86
2021/08/13 06:20:40;;;;;;;18.67;3.15;;;;;;;12.03;90.39;100920.59;4991567;28;20817;-87
2021/08/13 06:23:06;;;;;;;14.48;3.03;;;;;;;11.88;90.98;100917.88;5004223;28;20722;-87
2021/08/13 06:25:32;;;;;;;22.35;3.30;;;;;;;11.73;91.04;100891.88;5004985;28;20029;-87
2021/08/13 06:27:57;;;;;;;11.15;3.45;;;;;;;11.97;91.94;100925.91;5007919;28;20025;-87
2021/08/13 06:30:23;;;;;;;14.55;3.17;;;;;;;12.02;91.67;100931.59;4999164;28;20085;-87
2021/08/13 06:32:51;;;;;;;14.20;2.83;;;;;;;12.11;91.90;100925.09;4992085;28;20772;-86
2021/08/13 06:35:17;;;;;;;30.63;5.72;;;;;;;12.21;91.83;100925.69;4973297;28;20018;-86
2021/08/13 06:37:54;;;;;;;19.55;3.28;;;;;;;12.27;91.64;100935.72;5005188;28;20056;-85
2021/08/13 06:40:20;;;;;;;18.13;3.08;;;;;;;12.30;91.44;100919.22;4990149;28;20029;-86
2021/08/13 06:42:47;;;;;;;17.40;3.03;;;;;;;12.34;91.98;100916.13;5006725;28;20046;-87
2021/08/13 06:45:15;;;;;;;17.40;3.08;;;;;;;12.43;91.85;100936.59;5005781;28;20088;-86
2021/08/13 06:47:41;;;;;;;15.80;2.92;;;;;;;12.41;91.80;100920.63;5003610;28;20018;-85
2021/08/13 06:50:07;;;;;;;21.23;3.65;;;;;;;12.49;92.00;100927.75;5004185;28;20041;-87
2021/08/13 06:52:33;;;;;;;20.65;3.53;;;;;;;12.49;92.08;100928.63;4994636;28;20026;-86
2021/08/13 06:54:59;;;;;;;14.40;3.28;;;;;;;12.56;92.13;100930.56;4992931;28;20110;-86
2021/08/13 06:57:24;;;;;;;14.52;3.10;;;;;;;12.54;92.02;100926.22;4990958;28;20538;-87
2021/08/13 06:59:50;;;;;;;14.98;2.97;;;;;;;12.46;91.69;100911.94;4981053;28;20034;-86
2021/08/13 07:02:17;;;;;;;19.73;4.50;;;;;;;12.64;91.50;100938.56;5001234;28;20022;-86
2021/08/13 07:04:42;;;;;;;13.30;3.10;;;;;;;12.59;91.79;100919.41;4950351;28;20420;-86
2021/08/13 07:07:20;;;;;;;21.25;3.10;;;;;;;12.60;91.63;100910.31;5004042;28;20030;-86
2021/08/13 07:09:47;;;;;;;17.00;3.40;;;;;;;12.72;91.62;100923.13;4995524;28;20091;-85
2021/08/13 07:12:14;;;;;;;15.55;4.70;;;;;;;12.83;91.58;100935.31;4994032;28;20113;-86
2021/08/13 07:14:40;;;;;;;18.20;3.65;;;;;;;12.82;91.20;100916.63;4993865;28;20377;-84
2021/08/13 07:17:05;;;;;;;13.85;2.75;;;;;;;12.91;91.15;100920.88;4981906;28;20927;-85
2021/08/13 07:19:31;;;;;;;19.70;3.53;;;;;;;13.02;90.73;100922.28;5007876;28;20527;-87
2021/08/13 07:21:57;;;;;;;21.73;2.92;;;;;;;13.04;89.89;100918.38;4976730;28;20117;-86
2021/08/13 07:24:23;;;;;;;13.90;3.17;;;;;;;13.18;89.51;100916.69;4991393;28;20097;-84
2021/08/13 07:26:49;;;;;;;20.35;3.53;;;;;;;13.33;88.96;100933.72;4995847;28;20057;-85
2021/08/13 07:29:15;;;;;;;16.77;2.92;;;;;;;13.31;88.13;100913.31;4991470;28;20057;-86
2021/08/13 07:31:41;;;;;;;14.65;3.05;;;;;;;13.46;87.96;100930.31;5002255;28;20030;-86
2021/08/13 07:34:07;;;;;;;13.63;3.05;;;;;;;13.53;87.47;100950.16;5008280;28;20033;-87
2021/08/13 07:36:32;;;;;;;18.17;2.97;;;;;;;13.54;87.02;100937.47;5009110;28;20034;-86
2021/08/13 07:38:58;;;;;;;18.80;2.85;;;;;;;13.68;86.73;100960.06;4974170;28;20031;-87
2021/08/13 07:41:24;;;;;;;18.95;3.40;;;;;;;13.72;86.38;100947.88;4998641;28;20030;-86
2021/08/13 07:43:50;;;;;;;16.98;2.45;;;;;;;13.80;85.76;100958.56;4992898;28;21579;-85
2021/08/13 07:46:16;;;;;;;12.00;2.85;;;;;;;13.72;85.43;100939.75;4978937;28;20519;-87
2021/08/13 07:48:42;;;;;;;18.33;2.92;;;;;;;13.74;84.43;100946.66;4989717;28;20070;-87
2021/08/13 07:51:07;;;;;;;16.98;3.38;;;;;;;13.72;83.93;100934.34;5008023;28;20681;-86
2021/08/13 07:53:33;;;;;;;14.73;2.88;;;;;;;13.99;83.50;100973.28;4981480;28;20032;-84
2021/08/13 07:55:59;;;;;;;15.85;2.75;;;;;;;13.98;83.13;100975.16;4984222;28;20030;-86
2021/08/13 07:58:24;;;;;;;15.77;3.28;;;;;;;14.00;83.12;100981.22;5021475;28;20053;-87
2021/08/13 08:00:52;;;;;;;22.95;5.00;;;;;;;14.03;82.73;100985.41;5006095;28;20112;-85
2021/08/13 08:03:18;;;;;;;13.75;3.22;;;;;;;14.05;82.96;100983.31;5008342;28;20026;-85
2021/08/13 08:05:44;;;;;;;14.40;2.92;;;;;;;13.98;82.86;100974.34;5003808;28;20477;-85
2021/08/13 08:08:09;;;;;;;14.77;2.50;;;;;;;14.15;83.04;100989.25;5003116;28;20030;-84
2021/08/13 08:10:35;;;;;;;19.88;3.97;;;;;;;14.26;82.61;101002.28;4995738;28;20106;-85
2021/08/13 08:13:01;;;;;;;8.90;2.50;;;;;;;14.29;82.18;100999.19;4989352;28;20036;-86
2021/08/13 08:15:26;;;;;;;17.05;3.42;;;;;;;14.27;81.77;100984.19;4991134;28;20026;-86
2021/08/13 08:17:52;;;;;;;14.68;2.58;;;;;;;14.42;81.34;101006.56;4979081;28;20022;-85
2021/08/13 08:20:18;;;;;;;13.45;2.83;;;;;;;14.48;81.42;101016.63;5007998;28;20026;-87
2021/08/13 08:22:43;;;;;;;16.00;3.15;;;;;;;14.38;81.69;101009.84;5016882;28;20040;-86
2021/08/13 08:25:09;;;;;;;18.40;3.72;;;;;;;14.46;81.22;101024.06;4987909;28;20140;-86
2021/08/13 08:27:35;;;;;;;22.77;3.47;;;;;;;14.48;81.58;101030.13;4977351;28;20109;-84
2021/08/13 08:30:01;;;;;;;11.73;2.50;;;;;;;14.48;81.87;101032.84;4971187;28;20504;-85
2021/08/13 08:32:26;;;;;;;16.67;3.05;;;;;;;14.49;81.59;101031.78;4975924;28;20280;-85
2021/08/13 08:34:52;;;;;;;16.45;2.45;;;;;;;14.39;81.82;101017.75;4991095;28;20033;-84
2021/08/13 08:37:18;;;;;;;12.20;2.38;;;;;;;14.65;81.27;101036.13;4981880;28;20026;-86
2021/08/13 08:39:45;;;;;;;14.38;2.67;;;;;;;14.56;80.95;101025.66;5004227;28;20021;-84
2021/08/13 08:42:12;;;;;;;19.67;2.90;;;;;;;14.94;79.71;101040.50;4968289;28;20029;-86
2021/08/13 08:44:38;;;;;;;9.75;2.65;;;;;;;15.21;79.24;101040.69;5001066;28;20022;-86
2021/08/13 08:47:04;;;;;;;16.33;3.00;;;;;;;15.46;78.17;101029.38;4996909;28;20080;-86
2021/08/13 08:49:30;;;;;;;14.02;4.00;;;;;;;15.46;78.03;101002.28;5003399;28;20113;-86
2021/08/13 08:51:56;;;;;;;15.25;3.05;;;;;;;15.81;78.33;101038.28;4989402;28;20505;-86
2021/08/13 08:54:24;;;;;;;15.10;3.60;;;;;;;16.01;78.20;101041.06;4968594;28;20095;-86
2021/08/13 08:56:50;;;;;;;26.05;4.50;;;;;;;16.20;76.56;101045.69;4978853;28;20420;-86
2021/08/13 08:59:18;;;;;;;19.65;4.10;;;;;;;16.40;76.27;101031.31;4985236;28;20103;-86
2021/08/13 09:01:44;;;;;;;19.83;3.25;;;;;;;16.45;74.60;101062.22;4984095;28;20025;-84
2021/08/13 09:04:10;;;;;;;19.55;3.58;;;;;;;16.32;74.65;101040.47;4990728;28;20487;-85
2021/08/13 09:06:40;;;;;;;18.50;3.85;;;;;;;16.46;74.51;101055.75;5007059;28;20037;-84
2021/08/13 09:09:06;;;;;;;17.38;3.15;;;;;;;16.34;74.79;101049.25;4984979;28;20172;-84
2021/08/13 09:11:32;;;;;;;20.88;3.90;;;;;;;16.28;74.85;101069.09;4975035;28;20109;-87
2021/08/13 09:14:03;;;;;;;14.50;3.63;;;;;;;16.13;74.87;101052.97;4979672;28;20017;-86
2021/08/13 09:16:29;;;;;;;16.95;2.88;;;;;;;16.05;73.71;101067.56;4986670;28;20026;-86
2021/08/13 09:19:03;;;;;;;9.02;2.05;;;;;;;15.97;72.98;101077.75;4988971;28;20430;-85
2021/08/13 09:21:29;;;;;;;17.80;3.75;;;;;;;15.95;73.07;101069.81;5001225;28;20045;-85
2021/08/13 09:23:59;;;;;;;16.45;2.97;;;;;;;15.95;73.32;101060.84;4994733;28;20481;-85
2021/08/13 09:26:25;;;;;;;16.15;3.40;;;;;;;15.87;73.58;101077.31;4997691;28;20073;-85
2021/08/13 09:28:52;;;;;;;14.70;2.80;;;;;;;15.86;74.42;101081.91;5009595;28;20030;-84
2021/08/13 09:31:27;;;;;;;17.67;2.85;;;;;;;15.79;74.67;101092.72;4990925;28;20026;-86
2021/08/13 09:33:54;;;;;;;21.50;3.50;;;;;;;15.69;74.20;101086.84;4994488;28;20030;-85
2021/08/13 09:36:22;;;;;;;16.17;2.83;;;;;;;15.64;73.33;101062.19;5002922;28;20026;-85
2021/08/13 09:38:51;;;;;;;16.98;3.38;;;;;;;15.72;73.35;101089.16;4970506;28;20030;-86
2021/08/13 09:41:18;;;;;;;15.82;2.58;;;;;;;15.87;72.49;101101.72;4984016;28;20031;-86
2021/08/13 09:44:02;;;;;;;14.93;3.65;;;;;;;16.34;70.79;101087.25;4979713;28;20031;-85
2021/08/13 09:46:30;;;;;;;19.45;4.10;;;;;;;16.64;69.02;101122.16;5006324;28;20021;-85
2021/08/13 09:49:15;;;;;;;13.05;2.53;;;;;;;16.41;69.09;101101.69;5007688;28;20433;-85
2021/08/13 09:51:42;;;;;;;14.18;2.85;;;;;;;16.61;68.51;101115.25;4989891;28;20026;-85
2021/08/13 09:54:08;;;;;;;14.70;3.13;;;;;;;16.57;68.71;101116.75;5004161;28;20493;-84
2021/08/13 09:56:37;;;;;;;17.92;3.42;;;;;;;16.31;68.77;101092.25;4989748;28;20026;-85
2021/08/13 09:59:17;;;;;;;17.33;2.78;;;;;;;16.36;68.94;101117.75;5006739;28;20116;-84
2021/08/13 10:01:47;;;;;;;14.93;2.92;;;;;;;16.43;69.04;101110.47;4992069;28;20122;-84
2021/08/13 10:04:15;;;;;;;17.27;2.88;;;;;;;16.59;68.85;101111.94;4990991;28;20030;-84
2021/08/13 10:06:41;;;;;;;19.83;3.03;;;;;;;16.56;69.29;101115.03;5003220;28;20408;-84
2021/08/13 10:09:24;;;;;;;18.30;3.38;;;;;;;16.75;68.74;101116.13;5005783;28;20076;-86
2021/08/13 10:11:58;;;;;;;13.43;2.92;;;;;;;16.67;68.88;101119.03;4990799;28;20037;-84
2021/08/13 10:14:40;;;;;;;21.55;4.50;;;;;;;16.50;68.70;101121.31;4987322;28;20370;-84
2021/08/13 10:17:13;;;;;;;21.17;3.40;;;;;;;16.44;68.33;101116.72;4998451;28;20092;-85
2021/08/13 10:19:57;;;;;;;16.85;2.60;;;;;;;16.40;69.17;101113.56;5011480;28;20026;-85
2021/08/13 10:22:22;;;;;;;16.33;3.28;;;;;;;16.29;69.22;101111.44;4989292;28;20117;-84
2021/08/13 10:24:48;;;;;;;20.17;3.03;;;;;;;16.19;69.52;101117.25;4992034;28;20026;-85
2021/08/13 10:27:16;;;;;;;21.88;3.67;;;;;;;16.18;69.99;101139.19;5006542;28;20048;-86
2021/08/13 10:29:44;;;;;;;13.77;3.42;;;;;;;16.12;70.64;101130.00;4991231;28;20038;-86
2021/08/13 10:32:09;;;;;;;14.73;3.00;;;;;;;16.14;70.41;101141.47;4983134;28;20025;-86
2021/08/13 10:34:35;;;;;;;10.27;2.92;;;;;;;16.10;70.83;101142.91;4976550;28;20077;-85
2021/08/13 10:37:09;;;;;;;12.60;3.13;;;;;;;16.13;70.99;101131.66;5002520;28;20036;-85
2021/08/13 10:39:34;;;;;;;;;;;;;;;16.40;69.83;101140.69;4982051;28;20045;-84
2021/08/13 10:42:02;;;;;;;11.68;2.85;;;;;;;16.70;68.36;101141.19;5005233;28;19909;-85
2021/08/13 10:44:32;;;;;;;13.43;2.60;;;;;;;16.78;67.33;101121.19;4991252;28;20021;-85
2021/08/13 10:46:59;;;;;;;15.90;3.35;;;;;;;17.16;66.22;101104.25;5006438;28;20022;-85
2021/08/13 10:49:26;;;;;;;14.43;2.60;;;;;;;17.83;64.67;101110.38;4991682;28;20030;-84
2021/08/13 10:52:03;;;;;;;10.73;2.70;;;;;;;18.63;62.69;101129.84;4976952;28;20038;-85
2021/08/13 10:54:42;;;;;;;12.25;2.72;;;;;;;19.00;59.80;101123.72;4989544;28;20495;-85
2021/08/13 10:57:13;;;;;;;11.98;3.28;;;;;;;19.15;59.34;101151.47;5000050;28;20041;-86
2021/08/13 10:59:43;;;;;;;14.38;2.72;;;;;;;18.60;59.09;101134.88;4994155;28;20049;-87
2021/08/13 11:02:12;;;;;;;13.80;2.80;;;;;;;18.05;60.95;101137.25;5010416;28;20034;-86
2021/08/13 11:04:40;;;;;;;19.95;3.25;;;;;;;17.62;62.47;101113.34;5002929;28;20018;-85
2021/08/13 11:07:06;;;;;;;19.48;3.55;;;;;;;17.59;62.34;101150.78;4999568;28;20025;-86
2021/08/13 11:09:33;;;;;;;19.20;3.60;;;;;;;17.44;63.44;101152.06;4974597;28;20026;-87
2021/08/13 11:12:03;;;;;;;12.27;2.25;;;;;;;17.28;63.31;101156.06;5002052;28;20026;-85
2021/08/13 11:14:34;;;;;;;22.92;3.80;;;;;;;17.48;63.05;101154.16;4970682;28;20044;-85
2021/08/13 11:17:00;;;;;;;10.32;2.53;;;;;;;17.42;62.90;101138.69;5008824;28;20028;-87